Celebrity Infinity — 9HJD9 — position and weather

sailwx.info

Track history (hours):
 
Tides and Currents Weather Stations Pressure Air Temp Water Temp Dewpoint Dewpoint Depression Visibility Wind Speed Wind Dir Waves Ship Positions

Celebrity Infinity

Last reported at 2016-Aug-29 01:33 UTC. Time now 2016-Aug-29 01:58 UTC.
Position N 49°20' W 123°32'.

Length 294 m; draft 8.3 m.

Type: Ship. MMSI: 249048000.

Date/timePositionNaut miles runAvg speedWind from/ knotsBaromVisibWave heightAir tempDewpointWater temp
2016-Aug-29 01:33N 49°20' W 123°32'1111.5
2016-Aug-29 00:33N 49°19' W 123°14'5 5.3
2016-Aug-28 23:32N 49°17' W 123°07'0 0.0
2016-Aug-28 22:32N 49°17' W 123°07'0 0.0
2016-Aug-28 21:31N 49°17' W 123°07'0 0.0
2016-Aug-28 20:31N 49°17' W 123°07'0 0.0
2016-Aug-28 19:31N 49°17' W 123°07'0 0.0
2016-Aug-28 18:33N 49°17' W 123°07'0 0.0
2016-Aug-28 17:33N 49°17' W 123°07'0 0.0
2016-Aug-28 16:32N 49°17' W 123°07'0 0.0
2016-Aug-28 15:32N 49°17' W 123°07'0 0.0
2016-Aug-28 14:31N 49°17' W 123°07'0 0.3
2016-Aug-28 13:34N 49°17' W 123°06'10 9.5
2016-Aug-28 12:34N 49°18' W 123°21'1212.1
2016-Aug-28 11:33N 49°19' W 123°39'1211.5
2016-Aug-28 10:34N 49°21' W 123°57'1110.9
2016-Aug-28 09:33N 49°24' W 124°13'1010.2
2016-Aug-28 08:34N 49°29' W 124°27'1110.5
2016-Aug-28 07:34N 49°36' W 124°38'1110.7
2016-Aug-28 06:33N 49°44' W 124°49'1110.5
2016-Aug-28 05:33N 49°52' W 125°01'1111.4
2016-Aug-28 04:33N 50°00' W 125°12'1212.1
2016-Aug-28 03:33N 50°11' W 125°22'4715.5
2016-Aug-28 00:31N 50°30' W 126°29'2216.5
2016-Aug-27 23:12N 50°42' W 126°57'1420.0
2016-Aug-27 22:31N 50°47' W 127°17'1818.8
2016-Aug-27 21:33N 50°56' W 127°43'1616.5
2016-Aug-27 20:33N 51°06' W 128°03'  
2016-Aug-25 10:04N 58°09' W 135°15'714.7
2016-Aug-25 09:33N 58°13' W 135°28'1615.7
2016-Aug-25 08:34N 58°19' W 135°55'2 0.1
2016-Aug-24 07:33N 58°20' W 135°59'1817.9
2016-Aug-24 06:33N 58°12' W 135°28'49013.1
2016-Aug-22 17:06N 51°11' W 128°14'1119.6
2016-Aug-22 16:33N 51°05' W 128°01'1616.1
2016-Aug-22 15:34N 50°55' W 127°40'2020.3
2016-Aug-22 14:34N 50°46' W 127°12'7116.7
2016-Aug-22 10:18N 50°20' W 125°27'1114.7
2016-Aug-22 09:33N 50°10' W 125°22'1211.8
2016-Aug-22 08:33N 49°60' W 125°12'1212.0
2016-Aug-22 07:33N 49°51' W 124°59'1211.6
2016-Aug-22 06:33N 49°44' W 124°46'1111.2
2016-Aug-22 05:33N 49°35' W 124°36'1110.8
2016-Aug-22 04:33N 49°27' W 124°23'1111.4
2016-Aug-22 03:33N 49°24' W 124°07'10 9.6
2016-Aug-22 02:33N 49°22' W 123°52'1110.6
2016-Aug-22 01:33N 49°20' W 123°36'1111.1
2016-Aug-22 00:33N 49°19' W 123°19'8 8.5
2016-Aug-21 23:34N 49°18' W 123°06'1 0.5
2016-Aug-21 22:33N 49°17' W 123°07'0 0.0
2016-Aug-21 21:33N 49°17' W 123°07'0 0.0
2016-Aug-21 20:32N 49°17' W 123°07'0 0.0
2016-Aug-21 19:32N 49°17' W 123°07'0 0.0
2016-Aug-21 18:32N 49°17' W 123°07'0 0.0
2016-Aug-21 17:31N 49°17' W 123°07'0 0.0
2016-Aug-21 16:31N 49°17' W 123°07'0 0.0
2016-Aug-21 15:33N 49°17' W 123°07'0 0.0
2016-Aug-21 14:33N 49°17' W 123°07'1 0.7
2016-Aug-21 13:34N 49°18' W 123°06'9 9.0
2016-Aug-21 12:33N 49°18' W 123°20'9 9.1
2016-Aug-21 11:33N 49°18' W 123°34'9 9.4
2016-Aug-21 10:33N 49°20' W 123°48'9 9.4
2016-Aug-21 09:33N 49°22' W 124°03'9 9.5
2016-Aug-21 08:33N 49°25' W 124°17'9 9.2
2016-Aug-21 07:33N 49°29' W 124°29'9 9.4
2016-Aug-21 06:33N 49°36' W 124°38'9 9.4
2016-Aug-21 05:33N 49°43' W 124°48'10 9.6
2016-Aug-21 04:33N 49°50' W 124°58'10 9.8
2016-Aug-21 03:33N 49°57' W 125°09'1212.4
2016-Aug-21 02:33N 50°07' W 125°20'1413.8
2016-Aug-21 01:34N 50°20' W 125°27'6118.0
2016-Aug-20 22:11N 50°42' W 126°56'1421.3
2016-Aug-20 21:32N 50°47' W 127°16'2120.9
2016-Aug-20 20:32N 50°57' W 127°45'1716.8
2016-Aug-20 19:32N 51°07' W 128°07'  
Track history (hours):
 
Tides and Currents Weather Stations Pressure Air Temp Water Temp Dewpoint Dewpoint Depression Visibility Wind Speed Wind Dir Waves Ship Positions

Celebrity Infinity

Last reported at 2016-Aug-29 01:33 UTC. Time now 2016-Aug-29 01:58 UTC.
Position N 49°20' W 123°32'.

Length 294 m; draft 8.3 m.

Type: Ship. MMSI: 249048000.

Date/timePositionNaut miles runAvg speedWind from/ knotsBaromVisibWave heightAir tempDewpointWater temp
2016-Aug-29 01:33N 49°20' W 123°32'1111.5
2016-Aug-29 00:33N 49°19' W 123°14'5 5.3
2016-Aug-28 23:32N 49°17' W 123°07'0 0.0
2016-Aug-28 22:32N 49°17' W 123°07'0 0.0
2016-Aug-28 21:31N 49°17' W 123°07'0 0.0
2016-Aug-28 20:31N 49°17' W 123°07'0 0.0
2016-Aug-28 19:31N 49°17' W 123°07'0 0.0
2016-Aug-28 18:33N 49°17' W 123°07'0 0.0
2016-Aug-28 17:33N 49°17' W 123°07'0 0.0
2016-Aug-28 16:32N 49°17' W 123°07'0 0.0
2016-Aug-28 15:32N 49°17' W 123°07'0 0.0
2016-Aug-28 14:31N 49°17' W 123°07'0 0.3
2016-Aug-28 13:34N 49°17' W 123°06'10 9.5
2016-Aug-28 12:34N 49°18' W 123°21'1212.1
2016-Aug-28 11:33N 49°19' W 123°39'1211.5
2016-Aug-28 10:34N 49°21' W 123°57'1110.9
2016-Aug-28 09:33N 49°24' W 124°13'1010.2
2016-Aug-28 08:34N 49°29' W 124°27'1110.5
2016-Aug-28 07:34N 49°36' W 124°38'1110.7
2016-Aug-28 06:33N 49°44' W 124°49'1110.5
2016-Aug-28 05:33N 49°52' W 125°01'1111.4
2016-Aug-28 04:33N 50°00' W 125°12'1212.1
2016-Aug-28 03:33N 50°11' W 125°22'4715.5
2016-Aug-28 00:31N 50°30' W 126°29'2216.5
2016-Aug-27 23:12N 50°42' W 126°57'1420.0
2016-Aug-27 22:31N 50°47' W 127°17'1818.8
2016-Aug-27 21:33N 50°56' W 127°43'1616.5
2016-Aug-27 20:33N 51°06' W 128°03'  
2016-Aug-25 10:04N 58°09' W 135°15'714.7
2016-Aug-25 09:33N 58°13' W 135°28'1615.7
2016-Aug-25 08:34N 58°19' W 135°55'2 0.1
2016-Aug-24 07:33N 58°20' W 135°59'1817.9
2016-Aug-24 06:33N 58°12' W 135°28'49013.1
2016-Aug-22 17:06N 51°11' W 128°14'1119.6
2016-Aug-22 16:33N 51°05' W 128°01'1616.1
2016-Aug-22 15:34N 50°55' W 127°40'2020.3
2016-Aug-22 14:34N 50°46' W 127°12'7116.7
2016-Aug-22 10:18N 50°20' W 125°27'1114.7
2016-Aug-22 09:33N 50°10' W 125°22'1211.8
2016-Aug-22 08:33N 49°60' W 125°12'1212.0
2016-Aug-22 07:33N 49°51' W 124°59'1211.6
2016-Aug-22 06:33N 49°44' W 124°46'1111.2
2016-Aug-22 05:33N 49°35' W 124°36'1110.8
2016-Aug-22 04:33N 49°27' W 124°23'1111.4
2016-Aug-22 03:33N 49°24' W 124°07'10 9.6
2016-Aug-22 02:33N 49°22' W 123°52'1110.6
2016-Aug-22 01:33N 49°20' W 123°36'1111.1
2016-Aug-22 00:33N 49°19' W 123°19'8 8.5
2016-Aug-21 23:34N 49°18' W 123°06'1 0.5
2016-Aug-21 22:33N 49°17' W 123°07'0 0.0
2016-Aug-21 21:33N 49°17' W 123°07'0 0.0
2016-Aug-21 20:32N 49°17' W 123°07'0 0.0
2016-Aug-21 19:32N 49°17' W 123°07'0 0.0
2016-Aug-21 18:32N 49°17' W 123°07'0 0.0
2016-Aug-21 17:31N 49°17' W 123°07'0 0.0
2016-Aug-21 16:31N 49°17' W 123°07'0 0.0
2016-Aug-21 15:33N 49°17' W 123°07'0 0.0
2016-Aug-21 14:33N 49°17' W 123°07'1 0.7
2016-Aug-21 13:34N 49°18' W 123°06'9 9.0
2016-Aug-21 12:33N 49°18' W 123°20'9 9.1
2016-Aug-21 11:33N 49°18' W 123°34'9 9.4
2016-Aug-21 10:33N 49°20' W 123°48'9 9.4
2016-Aug-21 09:33N 49°22' W 124°03'9 9.5
2016-Aug-21 08:33N 49°25' W 124°17'9 9.2
2016-Aug-21 07:33N 49°29' W 124°29'9 9.4
2016-Aug-21 06:33N 49°36' W 124°38'9 9.4
2016-Aug-21 05:33N 49°43' W 124°48'10 9.6
2016-Aug-21 04:33N 49°50' W 124°58'10 9.8
2016-Aug-21 03:33N 49°57' W 125°09'1212.4
2016-Aug-21 02:33N 50°07' W 125°20'1413.8
2016-Aug-21 01:34N 50°20' W 125°27'6118.0
2016-Aug-20 22:11N 50°42' W 126°56'1421.3
2016-Aug-20 21:32N 50°47' W 127°16'2120.9
2016-Aug-20 20:32N 50°57' W 127°45'1716.8
2016-Aug-20 19:32N 51°07' W 128°07'  

Dump ship's entire track history